Time;durP1;ratioP1;P1;durP2;ratioP2;P2;SDS_P1;SDS_P2;PMS_P1;PMS_P2;Temp;Humidity;BMP_temperature;BMP_pressure;BME280_temperature;BME280_humidity;BME280_pressure;Samples;Min_cycle;Max_cycle;Signal;HPM_P1;HPM_P2
2022/12/10 00:00:36;;;;;;;28.40;7.07;;;11.20;99.90;;;11.26;66.88;94330.69;5083816;28;20989;-54
2022/12/10 00:03:04;;;;;;;27.80;8.20;;;11.20;99.90;;;11.27;66.85;94321.84;5082205;28;21006;-57
2022/12/10 00:05:34;;;;;;;17.73;7.80;;;11.20;99.90;;;11.27;67.02;94327.09;5083647;28;20477;-55
2022/12/10 00:08:01;;;;;;;23.43;7.87;;;11.20;99.90;;;11.29;66.90;94304.06;5084970;28;20439;-56
2022/12/10 00:10:28;;;;;;;19.70;7.17;;;11.20;99.90;;;11.29;66.97;94314.59;5083884;28;20983;-56
2022/12/10 00:12:56;;;;;;;30.90;7.63;;;11.20;99.90;;;11.26;66.99;94321.00;5080667;28;20443;-54
2022/12/10 00:15:23;;;;;;;19.83;6.53;;;11.20;99.90;;;11.28;66.99;94332.19;5084934;28;20860;-54
2022/12/10 00:17:50;;;;;;;14.37;7.63;;;11.20;99.90;;;11.29;66.92;94325.13;5077656;28;20458;-57
2022/12/10 00:20:17;;;;;;;18.57;7.77;;;11.20;99.90;;;11.27;67.23;94311.31;5079365;28;20477;-54
2022/12/10 00:22:46;;;;;;;18.00;7.60;;;11.20;99.90;;;11.25;67.06;94335.16;5080319;28;20493;-55
2022/12/10 00:25:13;;;;;;;18.10;7.90;;;11.20;99.90;;;11.23;67.02;94304.69;5073333;28;20819;-56
2022/12/10 00:27:41;;;;;;;13.43;7.43;;;11.20;99.90;;;11.23;66.91;94310.81;5075969;28;21004;-54
2022/12/10 00:30:09;;;;;;;15.57;8.20;;;11.20;99.90;;;11.21;67.01;94319.81;5073605;28;20917;-56
2022/12/10 00:32:38;;;;;;;15.50;8.27;;;11.20;99.90;;;11.18;67.04;94309.63;5080516;28;20878;-52
2022/12/10 00:35:06;;;;;;;14.83;8.50;;;11.10;99.90;;;11.15;67.14;94318.63;5077221;28;20470;-55
2022/12/10 00:37:34;;;;;;;18.03;6.67;;;11.10;99.90;;;11.15;67.22;94312.56;5078029;28;20472;-56
2022/12/10 00:40:03;;;;;;;14.93;5.80;;;11.10;99.90;;;11.15;67.21;94320.44;5077960;28;20559;-56
2022/12/10 00:42:30;;;;;;;12.03;6.43;;;11.10;99.90;;;11.16;67.28;94327.38;5079666;28;20981;-54
2022/12/10 00:44:57;;;;;;;17.17;6.20;;;11.10;99.90;;;11.16;67.50;94322.94;5070494;28;20479;-56
2022/12/10 00:47:25;;;;;;;15.60;6.27;;;11.10;99.90;;;11.18;67.56;94334.13;5078036;28;20442;-53
2022/12/10 00:49:52;;;;;;;15.63;6.00;;;11.10;99.90;;;11.19;67.43;94321.81;5077800;28;20467;-55
2022/12/10 00:52:19;;;;;;;15.50;5.63;;;11.20;99.90;;;11.19;67.58;94327.06;5078226;28;20450;-52
2022/12/10 00:54:46;;;;;;;17.00;7.10;;;11.10;99.90;;;11.19;67.55;94314.72;5075299;28;20478;-56
2022/12/10 00:57:15;;;;;;;14.20;5.67;;;11.20;99.90;;;11.19;67.38;94327.88;5076380;28;20446;-56
2022/12/10 00:59:42;;;;;;;19.00;5.10;;;11.10;99.90;;;11.20;67.50;94331.31;5077690;28;20470;-55
2022/12/10 01:02:10;;;;;;;14.40;6.00;;;11.10;99.90;;;11.23;67.64;94320.47;5083863;28;20961;-55
2022/12/10 01:04:37;;;;;;;15.13;7.07;;;11.20;99.90;;;11.25;67.46;94316.72;5081101;28;20497;-57
2022/12/10 01:07:04;;;;;;;15.97;6.00;;;11.20;99.90;;;11.28;67.65;94313.78;5085062;28;20583;-56
2022/12/10 01:09:31;;;;;;;11.40;6.83;;;11.20;99.90;;;11.32;67.66;94314.28;5082875;28;20907;-54
2022/12/10 01:12:02;;;;;;;25.00;6.63;;;11.20;99.90;;;11.33;67.50;94300.13;5084789;28;20454;-55
2022/12/10 01:14:32;;;;;;;12.30;6.63;;;11.30;99.90;;;11.35;67.52;94319.22;5081007;28;20486;-55
2022/12/10 01:17:03;;;;;;;24.37;8.33;;;11.30;99.90;;;11.37;67.61;94293.59;5084677;28;20533;-55
2022/12/10 01:19:30;;;;;;;26.83;8.30;;;11.30;99.90;;;11.38;67.56;94305.75;5081137;28;20550;-55
2022/12/10 01:21:57;;;;;;;17.20;10.83;;;11.30;99.90;;;11.37;67.54;94308.53;5084567;28;20989;-55
2022/12/10 01:24:26;;;;;;;19.70;10.53;;;11.30;99.90;;;11.36;67.64;94310.34;5083397;28;21010;-55
2022/12/10 01:26:54;;;;;;;27.67;7.67;;;11.30;99.90;;;11.37;67.47;94305.91;5077843;28;20449;-56
2022/12/10 01:29:21;;;;;;;18.83;6.70;;;11.30;99.90;;;11.36;67.72;94294.56;5082677;28;20474;-56
2022/12/10 01:31:51;;;;;;;21.90;7.30;;;11.30;99.90;;;11.38;67.60;94307.56;5081701;28;20461;-56
2022/12/10 01:34:18;;;;;;;18.17;6.80;;;11.30;99.90;;;11.40;67.94;94290.63;5078791;28;20478;-56
2022/12/10 01:36:46;;;;;;;16.73;7.20;;;11.30;99.90;;;11.40;67.90;94298.53;5078991;28;20921;-55
2022/12/10 01:39:15;;;;;;;16.33;7.37;;;11.30;99.90;;;11.42;67.88;94288.66;5076034;28;20470;-53
2022/12/10 01:41:44;;;;;;;17.50;8.20;;;11.30;99.90;;;11.44;67.72;94297.22;5083140;28;20458;-53
2022/12/10 01:45:01;;;;;;;16.77;7.00;;;11.40;99.90;;;11.46;67.87;94316.31;5081197;28;20486;-56
2022/12/10 01:47:30;;;;;;;10.33;6.83;;;11.40;99.90;;;11.47;67.56;94315.31;5080363;28;20476;-54
2022/12/10 01:49:57;;;;;;;25.83;7.17;;;11.40;99.90;;;11.48;67.77;94303.00;5082280;28;20466;-56
2022/12/10 01:52:25;;;;;;;18.03;6.40;;;11.40;99.90;;;11.47;67.13;94311.88;5081510;28;20846;-57
2022/12/10 01:54:52;;;;;;;26.07;6.97;;;11.40;99.90;;;11.46;67.82;94305.78;5082976;28;20512;-55
2022/12/10 01:57:22;;;;;;;26.93;7.63;;;11.40;99.90;;;11.45;68.21;94298.88;5083688;28;20554;-54
2022/12/10 01:59:54;;;;;;;19.90;7.50;;;11.40;99.90;;;11.45;67.82;94287.53;5080439;28;20495;-56
2022/12/10 02:02:31;;;;;;;21.60;7.20;;;11.40;99.90;;;11.45;68.00;94298.06;5079781;28;20878;-56
2022/12/10 02:05:08;;;;;;;13.10;6.57;;;11.40;99.90;;;11.46;68.11;94290.00;5082479;28;20501;-53
2022/12/10 02:07:47;;;;;;;17.30;6.40;;;11.40;99.90;;;11.45;68.33;94304.13;5083805;28;21052;-55
2022/12/10 02:10:23;;;;;;;21.70;6.47;;;11.40;99.90;;;11.45;68.48;94301.50;5081236;28;20774;-56
2022/12/10 02:12:54;;;;;;;9.50;5.43;;;11.40;99.90;;;11.46;68.31;94283.88;5074703;28;20449;-55
2022/12/10 02:15:25;;;;;;;25.23;7.90;;;11.40;99.90;;;11.45;68.50;94290.97;5077302;28;20485;-55
2022/12/10 02:17:55;;;;;;;15.70;5.70;;;11.40;99.90;;;11.45;68.63;94280.44;5084378;28;20473;-57
2022/12/10 02:20:24;;;;;;;12.90;6.33;;;11.40;99.90;;;11.46;68.63;94266.28;5081916;28;20477;-54
2022/12/10 02:22:58;;;;;;;18.23;6.43;;;11.40;99.90;;;11.45;68.32;94269.91;5086686;28;20469;-56
2022/12/10 02:25:31;;;;;;;10.63;6.00;;;11.40;99.90;;;11.44;68.60;94270.88;5078224;28;20524;-55
2022/12/10 02:28:02;;;;;;;14.57;6.77;;;11.40;99.90;;;11.44;68.48;94277.97;5082157;28;20454;-57
2022/12/10 02:30:31;;;;;;;19.17;6.83;;;11.40;99.90;;;11.40;68.68;94272.19;5078744;28;20920;-55
2022/12/10 02:32:58;;;;;;;18.43;6.43;;;11.30;99.90;;;11.36;68.98;94268.22;5085435;28;20564;-56
2022/12/10 02:35:28;;;;;;;12.30;6.83;;;11.30;99.90;;;11.32;68.78;94264.25;5073332;28;21019;-56
2022/12/10 02:37:57;;;;;;;45.90;19.27;;;11.30;99.90;;;11.29;68.91;94260.16;5080606;28;20545;-54
2022/12/10 02:40:27;;;;;;;128.73;42.67;;;11.30;99.90;;;11.29;68.93;94259.31;5082125;28;20482;-55
2022/12/10 02:42:54;;;;;;;35.53;14.17;;;11.20;99.90;;;11.31;69.38;94260.00;5081467;28;20725;-53
2022/12/10 02:45:23;;;;;;;30.60;10.13;;;11.30;99.90;;;11.33;69.23;94260.66;5084469;28;20501;-56
2022/12/10 02:47:52;;;;;;;18.77;7.77;;;11.30;99.90;;;11.33;69.40;94265.09;5079651;28;20466;-53
2022/12/10 02:50:20;;;;;;;13.10;6.77;;;11.30;99.90;;;11.35;69.29;94263.13;5083655;28;20485;-56
2022/12/10 02:52:47;;;;;;;17.23;8.70;;;11.30;99.90;;;11.35;69.26;94256.03;5074300;28;20455;-54
2022/12/10 02:55:14;;;;;;;16.90;7.10;;;11.30;99.90;;;11.39;69.32;94251.28;5085813;28;20478;-56
2022/12/10 02:57:46;;;;;;;11.93;6.67;;;11.30;99.90;;;11.40;69.52;94266.94;5074326;28;20462;-57
2022/12/10 03:00:18;;;;;;;17.83;6.27;;;11.30;99.90;;;11.41;69.05;94260.66;5082809;28;20486;-54
2022/12/10 03:03:04;;;;;;;22.20;6.73;;;11.30;99.90;;;11.43;69.31;94266.63;5080148;28;20455;-56
2022/12/10 03:05:35;;;;;;;11.10;6.40;;;11.40;99.90;;;11.44;69.40;94262.16;5076719;28;20547;-56
2022/12/10 03:08:06;;;;;;;19.33;6.60;;;11.40;99.90;;;11.45;69.56;94263.81;5079124;28;20934;-54
2022/12/10 03:10:35;;;;;;;10.60;6.00;;;11.40;99.90;;;11.44;69.57;94260.34;5071463;28;20563;-56
2022/12/10 03:13:06;;;;;;;14.93;5.93;;;11.40;99.90;;;11.44;69.54;94249.81;5081593;28;20806;-55
2022/12/10 03:15:36;;;;;;;15.63;6.80;;;11.40;99.90;;;11.48;69.80;94255.59;5076323;28;21022;-55
2022/12/10 03:18:05;;;;;;;11.23;7.40;;;11.40;99.90;;;11.49;69.74;94244.06;5079521;28;20467;-56
2022/12/10 03:20:33;;;;;;;11.10;6.57;;;11.40;99.90;;;11.52;69.96;94242.94;5078858;28;20483;-55
2022/12/10 03:23:00;;;;;;;16.43;6.50;;;11.40;99.90;;;11.53;69.74;94241.94;5073989;28;20458;-55
2022/12/10 03:25:29;;;;;;;16.93;7.27;;;11.50;99.90;;;11.55;70.11;94235.50;5082081;28;21025;-54
2022/12/10 03:27:56;;;;;;;14.73;7.67;;;11.50;99.90;;;11.57;69.75;94232.72;5074240;28;20459;-54
2022/12/10 03:30:24;;;;;;;16.23;7.37;;;11.50;99.90;;;11.56;69.91;94231.91;5081193;28;20538;-56
2022/12/10 03:32:51;;;;;;;21.33;8.70;;;11.50;99.90;;;11.56;69.96;94241.63;5078749;28;20528;-56
2022/12/10 03:35:21;;;;;;;26.20;9.00;;;11.50;99.90;;;11.55;70.06;94239.97;5078935;28;20881;-57
2022/12/10 03:37:49;;;;;;;21.53;7.37;;;11.50;99.90;;;11.54;70.36;94244.41;5074215;28;20837;-57
2022/12/10 03:40:17;;;;;;;19.33;7.80;;;11.50;99.90;;;11.54;70.57;94240.94;5080931;28;20545;-55
2022/12/10 03:42:45;;;;;;;21.57;8.97;;;11.50;99.90;;;11.51;70.38;94226.31;5080896;28;20560;-54
2022/12/10 03:45:12;;;;;;;12.13;7.80;;;11.50;99.90;;;11.52;70.43;94230.56;5087257;28;20485;-57
2022/12/10 03:47:39;;;;;;;12.00;6.93;;;11.50;99.90;;;11.53;70.86;94228.78;5077116;28;20462;-54
2022/12/10 03:50:07;;;;;;;16.73;6.80;;;11.50;99.90;;;11.55;70.61;94218.91;5082285;28;20476;-55
2022/12/10 03:52:36;;;;;;;12.83;6.83;;;11.50;99.90;;;11.56;71.09;94221.38;5073821;28;20443;-53
2022/12/10 03:55:04;;;;;;;12.43;6.17;;;11.50;99.90;;;11.58;71.24;94229.13;5080665;28;20474;-56
2022/12/10 03:57:31;;;;;;;11.53;6.03;;;11.50;99.90;;;11.61;71.46;94231.44;5080573;28;21085;-55
2022/12/10 03:59:58;;;;;;;16.23;8.13;;;11.50;99.90;;;11.62;71.50;94236.53;5080623;28;20905;-56
2022/12/10 04:02:25;;;;;;;18.07;9.17;;;11.60;99.90;;;11.63;71.41;94248.72;5078676;28;20447;-56
2022/12/10 04:04:53;;;;;;;26.87;7.20;;;11.60;99.90;;;11.61;71.78;94241.97;5080363;28;20566;-55
2022/12/10 04:07:20;;;;;;;11.70;7.40;;;11.60;99.90;;;11.62;72.09;94249.69;5082393;28;20461;-55
2022/12/10 04:09:49;;;;;;;20.03;8.10;;;11.50;99.90;;;11.62;72.28;94233.91;5074312;28;20860;-55
2022/12/10 04:12:16;;;;;;;18.27;8.10;;;11.60;99.90;;;11.63;71.41;94263.69;5075078;28;20965;-55
2022/12/10 04:17:28;;;;;;;23.73;8.20;;;11.60;99.90;;;11.61;72.89;94241.97;5079724;28;20449;-57
2022/12/10 04:19:55;;;;;;;12.67;6.70;;;11.50;99.90;;;11.60;72.89;94238.50;5078108;28;20971;-57
2022/12/10 04:27:55;;;;;;;8.17;5.17;;;11.50;99.90;;;11.57;72.81;94220.41;5073126;28;20449;-56
2022/12/10 04:30:22;;;;;;;12.27;4.80;;;11.50;99.90;;;11.66;72.68;94242.28;5082580;28;21004;-56
2022/12/10 04:32:50;;;;;;;17.60;6.03;;;11.60;99.90;;;11.76;72.91;94253.50;5080962;28;20477;-56
2022/12/10 04:35:17;;;;;;;14.00;6.00;;;11.70;99.90;;;11.83;72.95;94232.59;5079521;28;21850;-54
2022/12/10 04:37:45;;;;;;;8.23;5.40;;;11.70;99.90;;;11.88;72.54;94229.47;5077481;28;20486;-56
2022/12/10 04:40:13;;;;;;;13.97;6.60;;;11.80;99.90;;;11.94;72.82;94234.13;5081975;28;20478;-55
2022/12/10 04:42:41;;;;;;;13.37;7.00;;;11.80;99.90;;;11.98;72.62;94235.44;5084749;28;20993;-56
2022/12/10 04:45:09;;;;;;;27.13;7.27;;;11.90;99.90;;;11.98;72.67;94236.25;5080440;28;20494;-54
2022/12/10 04:47:36;;;;;;;13.40;6.43;;;11.90;99.90;;;12.02;72.83;94239.38;5076856;28;20965;-57
2022/12/10 04:50:04;;;;;;;24.30;7.30;;;11.90;99.90;;;12.06;72.62;94253.91;5079121;28;20552;-56
2022/12/10 04:52:32;;;;;;;22.47;5.83;;;12.00;99.90;;;12.09;73.03;94227.22;5075316;28;21492;-55
2022/12/10 04:54:59;;;;;;;15.27;6.70;;;12.00;99.90;;;12.11;73.04;94245.50;5086396;28;20554;-55
2022/12/10 04:57:28;;;;;;;25.10;6.90;;;12.00;99.90;;;12.12;73.33;94255.06;5079048;28;20472;-52
2022/12/10 04:59:55;;;;;;;13.20;7.37;;;12.00;99.90;;;12.10;72.66;94246.47;5075647;28;21026;-56
2022/12/10 05:02:22;;;;;;;22.47;7.33;;;12.00;99.90;;;12.07;73.72;94233.63;5080898;28;20458;-57
2022/12/10 05:04:50;;;;;;;19.30;8.93;;;12.00;99.90;;;12.05;74.01;94228.50;5087576;28;20497;-57
2022/12/10 05:07:17;;;;;;;19.03;9.13;;;12.00;99.90;;;12.02;73.99;94242.88;5078242;28;20454;-54
2022/12/10 05:09:44;;;;;;;27.30;9.93;;;11.90;99.90;;;11.98;73.58;94243.34;5077026;28;20485;-55
2022/12/10 05:12:11;;;;;;;21.87;10.40;;;11.90;99.90;;;11.91;73.56;94240.50;5077515;28;20459;-55
2022/12/10 05:14:40;;;;;;;15.30;10.83;;;11.90;99.90;;;11.86;74.36;94228.81;5085844;28;20505;-54
2022/12/10 05:17:07;;;;;;;21.80;11.10;;;11.80;99.90;;;11.83;74.13;94222.06;5080619;28;20586;-56
2022/12/10 05:19:35;;;;;;;24.67;10.63;;;11.80;99.90;;;11.80;75.01;94228.50;5086854;28;20483;-55
2022/12/10 05:24:49;;;;;;;17.63;9.10;;;11.70;99.90;;;11.80;75.26;94238.19;5054053;28;20623;-57
2022/12/10 05:27:16;;;;;;;15.50;8.73;;;11.70;99.90;;;11.81;74.84;94224.03;5080704;28;20508;-53
2022/12/10 05:29:45;;;;;;;14.97;9.03;;;11.70;99.90;;;11.81;74.90;94229.31;5082057;28;20473;-55
2022/12/10 05:32:12;;;;;;;18.80;10.73;;;11.70;99.90;;;11.80;75.19;94228.50;5080589;28;20499;-57
2022/12/10 05:34:39;;;;;;;16.63;8.00;;;11.70;99.90;;;11.80;75.21;94228.50;5075548;28;20474;-55
2022/12/10 05:37:07;;;;;;;15.10;10.03;;;11.70;99.90;;;11.80;75.15;94238.19;5078850;28;20967;-56
2022/12/10 05:39:34;;;;;;;17.73;9.57;;;11.70;99.90;;;11.79;75.24;94234.75;5086021;28;20474;-55
2022/12/10 05:42:01;;;;;;;17.90;9.30;;;11.70;99.90;;;11.75;75.24;94236.03;5083439;28;20507;-56
2022/12/10 05:44:29;;;;;;;17.63;8.97;;;11.70;99.90;;;11.73;75.03;94227.50;5081596;28;21017;-57
2022/12/10 05:46:57;;;;;;;20.10;8.27;;;11.70;99.90;;;11.72;75.49;94243.47;5084405;28;20450;-57
2022/12/10 05:49:25;;;;;;;18.97;9.30;;;11.70;99.90;;;11.71;75.18;94247.06;5083606;28;20567;-53
2022/12/10 05:51:52;;;;;;;26.17;7.90;;;11.60;99.90;;;11.70;75.28;94238.34;5083308;28;20970;-57
2022/12/10 05:54:19;;;;;;;23.27;7.97;;;11.60;99.90;;;11.69;75.18;94236.69;5079583;28;20481;-55
2022/12/10 05:56:46;;;;;;;15.60;9.20;;;11.60;99.90;;;11.69;75.73;94244.59;5079489;28;20458;-56
2022/12/10 05:59:14;;;;;;;16.63;7.77;;;11.60;99.90;;;11.72;75.87;94236.38;5082371;28;20470;-57
2022/12/10 06:01:41;;;;;;;16.73;7.87;;;11.70;99.90;;;11.74;76.09;94250.22;5079561;28;20458;-57
2022/12/10 06:04:10;;;;;;;13.23;6.60;;;11.70;99.90;;;11.76;75.94;94239.53;5077467;28;20577;-56
2022/12/10 06:06:38;;;;;;;12.13;6.50;;;11.70;99.90;;;11.78;75.83;94240.19;5082994;28;20461;-55
2022/12/10 06:09:06;;;;;;;9.80;5.50;;;11.70;99.90;;;11.83;75.61;94265.06;5080388;28;20523;-57
2022/12/10 06:11:33;;;;;;;11.57;6.80;;;11.70;99.90;;;11.86;75.59;94253.34;5083215;28;20445;-57
2022/12/10 06:14:01;;;;;;;14.67;7.33;;;11.80;99.90;;;11.90;75.15;94256.47;5074504;28;20461;-56
2022/12/10 06:16:28;;;;;;;13.83;6.90;;;11.80;99.90;;;11.92;74.95;94252.72;5074828;28;20472;-57
2022/12/10 06:18:56;;;;;;;14.07;6.23;;;11.80;99.90;;;11.96;75.01;94250.59;5080437;28;20470;-56
2022/12/10 06:21:24;;;;;;;12.77;6.53;;;11.90;99.90;;;11.99;74.60;94248.47;5084276;28;20454;-56
2022/12/10 06:23:52;;;;;;;18.57;6.47;;;11.90;99.90;;;12.03;74.91;94243.69;5076126;28;20977;-56
2022/12/10 06:26:21;;;;;;;11.73;6.83;;;11.90;99.90;;;12.02;74.72;94242.88;5084767;28;20454;-56
2022/12/10 06:28:48;;;;;;;19.07;7.20;;;12.00;99.90;;;12.07;75.01;94239.75;5082226;28;20454;-56
2022/12/10 06:31:16;;;;;;;75.73;34.60;;;12.00;99.90;;;12.07;74.83;94231.84;5079575;28;20458;-56
2022/12/10 06:33:43;;;;;;;29.40;8.80;;;12.00;99.90;;;12.08;74.90;94230.81;5081786;28;20461;-55
2022/12/10 06:36:12;;;;;;;20.53;9.13;;;12.00;99.90;;;12.10;75.13;94228.88;5084413;28;20478;-53
2022/12/10 06:38:40;;;;;;;18.53;9.43;;;12.00;99.90;;;12.12;74.73;94240.06;5080533;28;20454;-57
2022/12/10 06:41:09;;;;;;;15.40;7.37;;;12.00;99.90;;;12.12;75.42;94239.25;5078813;28;20489;-56
2022/12/10 06:43:36;;;;;;;15.23;6.87;;;12.00;99.90;;;12.12;75.23;94239.25;5082435;28;20462;-58
2022/12/10 06:46:06;;;;;;;21.77;9.43;;;12.00;99.90;;;12.14;75.80;94251.25;5079782;28;20535;-57
2022/12/10 06:48:33;;;;;;;12.87;7.47;;;12.10;99.90;;;12.17;75.28;94253.56;5084544;28;20549;-55
2022/12/10 06:51:01;;;;;;;17.47;7.77;;;12.10;99.90;;;12.20;75.41;94266.41;5082274;28;20477;-57
2022/12/10 06:53:28;;;;;;;20.10;8.40;;;12.10;99.90;;;12.23;75.77;94259.19;5079377;28;20453;-56
2022/12/10 06:55:59;;;;;;;15.80;8.00;;;12.10;99.90;;;12.28;75.01;94272.69;5079876;28;20478;-56
2022/12/10 06:58:29;;;;;;;16.17;7.00;;;12.20;99.90;;;12.32;74.99;94263.47;5086422;28;20530;-55
2022/12/10 07:01:02;;;;;;;18.40;6.67;;;12.20;99.90;;;12.38;74.88;94257.53;5077881;28;21077;-56
2022/12/10 07:03:30;;;;;;;6.43;3.60;;;12.30;99.90;;;12.44;74.06;94256.03;5075775;28;20529;-56
2022/12/10 07:05:59;;;;;;;11.57;7.10;;;12.30;99.90;;;12.52;74.42;94256.03;5079723;28;20497;-56
2022/12/10 07:08:26;;;;;;;15.77;6.87;;;12.40;99.90;;;12.58;74.21;94267.72;5084525;28;20980;-57
2022/12/10 07:10:54;;;;;;;16.57;6.43;;;12.50;99.90;;;12.63;73.85;94265.41;5074700;28;20466;-55
2022/12/10 07:13:23;;;;;;;17.97;8.60;;;12.50;99.90;;;12.67;73.82;94259.63;5077952;28;20476;-56
2022/12/10 07:15:50;;;;;;;19.40;9.67;;;12.60;99.90;;;12.70;73.81;94263.75;5079399;28;21141;-55
2022/12/10 07:18:17;;;;;;;28.87;10.33;;;12.60;99.90;;;12.71;74.03;94252.19;5080790;28;20839;-55
2022/12/10 07:20:45;;;;;;;16.67;9.27;;;12.60;99.90;;;12.71;73.86;94247.75;5076708;28;20879;-55
2022/12/10 07:23:12;;;;;;;13.70;9.43;;;12.60;99.90;;;12.69;74.06;94246.28;5078343;28;20516;-55
2022/12/10 07:25:39;;;;;;;19.50;9.50;;;12.60;99.90;;;12.66;73.78;94236.88;5081244;28;20485;-56
2022/12/10 07:28:06;;;;;;;16.00;7.77;;;12.60;99.90;;;12.62;73.98;94240.00;5081915;28;20507;-55
2022/12/10 07:30:35;;;;;;;22.17;9.10;;;12.60;99.90;;;12.58;74.10;94230.78;5082343;28;20481;-58
2022/12/10 07:33:02;;;;;;;12.70;6.90;;;12.60;99.90;;;12.57;73.84;94234.44;5083622;28;20503;-55
2022/12/10 07:35:29;;;;;;;18.70;7.73;;;12.50;99.90;;;12.55;73.82;94238.06;5081370;28;20682;-57
2022/12/10 07:37:57;;;;;;;15.70;8.47;;;12.50;99.90;;;12.55;73.75;94243.31;5078895;28;20462;-55
2022/12/10 07:40:24;;;;;;;13.63;6.73;;;12.50;99.90;;;12.57;73.45;94237.88;5078499;28;20603;-55
2022/12/10 07:42:51;;;;;;;15.30;6.90;;;12.50;99.90;;;12.60;73.16;94236.72;5077660;28;20463;-56
2022/12/10 07:45:19;;;;;;;10.60;6.60;;;12.50;99.90;;;12.62;73.39;94237.38;5084872;28;20495;-59
2022/12/10 07:47:47;;;;;;;10.73;5.70;;;12.50;99.90;;;12.68;72.83;94241.97;5080900;28;20446;-54
2022/12/10 07:50:15;;;;;;;9.00;5.47;;;12.60;99.90;;;12.72;72.59;94238.03;5083494;28;20827;-57
2022/12/10 07:52:42;;;;;;;16.20;6.70;;;12.60;99.90;;;12.77;72.62;94240.16;5077848;28;20446;-56
2022/12/10 07:55:09;;;;;;;9.80;6.63;;;12.70;99.90;;;12.82;72.85;94230.72;5078459;28;20631;-55
2022/12/10 07:57:37;;;;;;;6.60;5.23;;;12.70;99.90;;;12.89;72.52;94228.25;5084517;28;20450;-57
2022/12/10 08:00:05;;;;;;;19.90;7.27;;;12.80;99.90;;;13.01;72.56;94218.13;5076917;28;20945;-57
2022/12/10 08:02:33;;;;;;;11.63;6.10;;;12.90;99.90;;;13.08;71.96;94227.84;5078995;28;20464;-58
2022/12/10 08:05:02;;;;;;;14.53;6.37;;;13.00;99.90;;;13.16;71.72;94205.03;5077873;28;20506;-57
2022/12/10 08:07:29;;;;;;;11.80;6.27;;;13.00;99.90;;;13.22;71.44;94215.72;5078453;28;20455;-58
2022/12/10 08:09:56;;;;;;;13.60;7.13;;;13.10;99.90;;;13.24;71.36;94211.09;5084060;28;20478;-56
2022/12/10 08:12:23;;;;;;;15.93;7.40;;;13.10;99.90;;;13.25;71.14;94196.91;5079912;28;20454;-58
2022/12/10 08:14:50;;;;;;;13.07;8.10;;;13.20;99.90;;;13.27;71.42;94200.19;5078136;28;20933;-56
2022/12/10 08:17:18;;;;;;;10.40;6.10;;;13.20;99.90;;;13.32;71.15;94198.84;5081465;28;20970;-58
2022/12/10 08:19:45;;;;;;;14.50;6.90;;;13.20;99.90;;;13.33;70.83;94208.44;5077955;28;20850;-57
2022/12/10 08:22:14;;;;;;;14.67;6.77;;;13.20;99.90;;;13.32;70.75;94206.78;5079816;28;20499;-56
2022/12/10 08:24:41;;;;;;;23.50;7.90;;;13.20;99.90;;;13.29;70.89;94207.94;5075239;28;20463;-60
2022/12/10 08:27:08;;;;;;;14.33;6.80;;;13.20;99.90;;;13.25;71.60;94196.91;5078013;28;20997;-58
2022/12/10 08:29:36;;;;;;;18.50;8.93;;;13.20;99.90;;;13.27;71.65;94205.47;5080578;28;20532;-55
2022/12/10 08:32:03;;;;;;;13.70;7.30;;;13.20;99.90;;;13.31;71.27;94194.56;5078973;28;20466;-59
2022/12/10 08:34:31;;;;;;;30.00;10.37;;;13.20;99.90;;;13.35;71.54;94190.63;5074503;28;20475;-56
2022/12/10 08:36:58;;;;;;;14.40;9.33;;;13.20;99.90;;;13.35;71.67;94193.25;5078097;28;20455;-55
2022/12/10 08:39:27;;;;;;;21.53;12.50;;;13.20;99.90;;;13.41;72.07;94196.00;5079495;28;20893;-57
2022/12/10 08:41:54;;;;;;;22.17;13.77;;;13.30;99.90;;;13.57;71.93;94195.13;5083741;28;21036;-57
2022/12/10 08:44:21;;;;;;;21.63;14.10;;;13.40;99.90;;;13.79;71.51;94204.03;5080533;28;20466;-55
2022/12/10 08:46:48;;;;;;;20.33;13.03;;;13.60;99.90;;;13.99;71.40;94199.09;5079324;28;20889;-58
2022/12/10 08:49:16;;;;;;;21.63;12.67;;;13.80;99.90;;;14.12;70.99;94197.69;5079941;28;20470;-57
2022/12/10 08:51:43;;;;;;;20.03;10.77;;;13.90;99.90;;;14.16;70.28;94193.69;5081040;28;20523;-56
2022/12/10 08:54:10;;;;;;;15.50;10.13;;;14.00;99.90;;;14.15;70.08;94197.34;5081026;28;20886;-56
2022/12/10 08:56:40;;;;;;;12.10;7.90;;;14.00;99.90;;;14.14;70.41;94190.38;5080683;28;20442;-56
2022/12/10 08:59:08;;;;;;;15.10;8.27;;;14.00;99.90;;;14.25;70.78;94168.81;5080275;28;20495;-55
2022/12/10 09:01:35;;;;;;;15.30;7.27;;;14.00;99.90;;;14.49;69.99;94172.22;5078691;28;20465;-56
2022/12/10 09:04:02;;;;;;;13.00;8.40;;;14.20;99.90;;;14.85;69.85;94164.38;5081338;28;20458;-57
2022/12/10 09:06:30;;;;;;;16.90;8.37;;;14.50;99.90;;;15.29;69.07;94145.97;5080217;28;20583;-57
2022/12/10 09:08:57;;;;;;;55.03;10.43;;;14.90;99.90;;;15.79;68.21;94167.34;5082216;28;20480;-56
2022/12/10 09:11:27;;;;;;;9.57;5.80;;;15.30;99.90;;;16.09;65.80;94157.41;5080600;28;20547;-57
2022/12/10 09:13:55;;;;;;;15.40;7.40;;;15.60;99.90;;;16.11;63.91;94161.50;5069891;28;20893;-57
2022/12/10 09:16:23;;;;;;;13.13;6.47;;;15.80;99.90;;;16.07;65.13;94170.84;5075118;28;20855;-57
2022/12/10 09:18:50;;;;;;;9.93;5.83;;;15.80;99.90;;;16.18;64.02;94168.69;5070231;28;20451;-55
2022/12/10 09:21:18;;;;;;;30.37;7.27;;;15.90;99.90;;;16.34;65.23;94165.75;5078891;28;20469;-55
2022/12/10 09:23:45;;;;;;;17.67;6.50;;;16.00;99.90;;;16.49;64.62;94161.16;5073481;28;20458;-55
2022/12/10 09:26:14;;;;;;;13.47;5.80;;;16.10;99.90;;;16.63;64.31;94153.31;5083825;28;20493;-56
2022/12/10 09:28:41;;;;;;;10.10;5.47;;;16.20;99.90;;;16.69;63.39;94147.22;5073159;28;20451;-56
2022/12/10 09:31:10;;;;;;;18.10;8.47;;;16.40;99.90;;;16.87;62.54;94125.50;5082361;28;20467;-55
2022/12/10 09:33:37;;;;;;;19.97;6.57;;;16.50;99.90;;;16.99;63.49;94137.19;5071220;28;20474;-56
2022/12/10 09:36:06;;;;;;;11.83;6.10;;;16.60;99.90;;;16.92;63.18;94136.34;5079182;28;20500;-56
2022/12/10 09:38:34;;;;;;;13.40;5.27;;;16.60;99.90;;;16.83;63.48;94127.66;5075015;28;20455;-55
2022/12/10 09:41:03;;;;;;;8.17;6.70;;;16.60;99.90;;;16.82;63.23;94120.75;5073759;28;20501;-57
2022/12/10 09:43:43;;;;;;;10.27;6.73;;;16.60;99.90;;;16.98;63.04;94114.28;5081696;28;20510;-54
2022/12/10 09:46:19;;;;;;;15.07;8.60;;;16.70;99.90;;;17.19;62.88;94108.00;5080416;28;20498;-57
2022/12/10 09:48:56;;;;;;;20.83;8.20;;;16.90;99.90;;;17.54;62.21;94110.56;5079020;28;20933;-59
2022/12/10 09:51:25;;;;;;;8.17;6.00;;;17.10;99.90;;;17.94;60.05;94104.53;5079731;28;20612;-57
2022/12/10 09:53:58;;;;;;;7.10;5.90;;;17.50;99.40;;;18.28;58.86;94100.81;5081368;28;20507;-56
2022/12/10 09:56:27;;;;;;;26.53;7.17;;;17.80;98.70;;;18.67;59.56;94097.47;5079836;28;20445;-55
2022/12/10 09:58:55;;;;;;;11.47;4.63;;;18.10;99.10;;;19.13;58.57;94104.53;5080592;28;20557;-56
2022/12/10 10:01:26;;;;;;;14.53;5.80;;;18.60;98.60;;;19.52;57.65;94094.72;5080268;28;20456;-57
2022/12/10 10:03:53;;;;;;;12.60;6.93;;;18.90;97.80;;;19.69;56.20;94103.81;5079226;28;20860;-54
2022/12/10 10:06:29;;;;;;;11.97;5.77;;;19.20;96.60;;;19.83;57.29;94111.75;5083017;28;20907;-55
2022/12/10 10:08:58;;;;;;;11.60;5.90;;;19.40;96.90;;;19.89;56.37;94097.56;5080452;28;20548;-57
2022/12/10 10:11:29;;;;;;;19.17;6.40;;;19.50;96.30;;;19.98;56.30;94093.56;5082583;28;20458;-56
2022/12/10 10:13:59;;;;;;;7.23;5.30;;;19.60;96.10;;;20.06;55.68;94096.00;5080018;28;20465;-55
2022/12/10 10:16:31;;;;;;;12.80;6.63;;;19.70;95.50;;;20.01;54.88;94090.47;5081942;28;20519;-55
2022/12/10 10:19:01;;;;;;;11.03;5.97;;;19.70;94.50;;;19.94;55.36;94078.22;5081449;28;20442;-55
2022/12/10 10:21:29;;;;;;;14.30;6.60;;;19.60;94.80;;;19.92;54.75;94081.09;5080839;28;20454;-54
2022/12/10 10:23:57;;;;;;;12.50;7.10;;;19.60;94.20;;;19.95;53.71;94064.66;5081845;28;20978;-55
2022/12/10 10:26:26;;;;;;;20.43;7.00;;;19.60;93.30;;;19.89;54.88;94065.53;5081066;28;20494;-53
2022/12/10 10:28:57;;;;;;;38.83;7.17;;;19.60;94.00;;;19.75;54.43;94059.47;5077737;28;20577;-56